sensor_id;sensor_type;location;lat;lon;timestamp;P1;durP1;ratioP1;P2;durP2;ratioP2
23608;SDS011;11982;50.810;4.442;2024-03-08T00:02:15;47.63;;;20.73;;
23608;SDS011;11982;50.810;4.442;2024-03-08T00:04:41;45.42;;;20.80;;
23608;SDS011;11982;50.810;4.442;2024-03-08T00:07:07;45.05;;;20.23;;
23608;SDS011;11982;50.810;4.442;2024-03-08T00:09:33;50.83;;;20.27;;
23608;SDS011;11982;50.810;4.442;2024-03-08T00:11:58;49.78;;;20.88;;
23608;SDS011;11982;50.810;4.442;2024-03-08T00:14:24;45.47;;;19.65;;
23608;SDS011;11982;50.810;4.442;2024-03-08T00:16:50;49.35;;;20.48;;
23608;SDS011;11982;50.810;4.442;2024-03-08T00:19:17;56.30;;;22.55;;
23608;SDS011;11982;50.810;4.442;2024-03-08T00:21:43;51.95;;;21.42;;
23608;SDS011;11982;50.810;4.442;2024-03-08T00:24:10;47.63;;;20.42;;
23608;SDS011;11982;50.810;4.442;2024-03-08T00:26:37;50.65;;;20.13;;
23608;SDS011;11982;50.810;4.442;2024-03-08T00:29:02;51.97;;;20.85;;
23608;SDS011;11982;50.810;4.442;2024-03-08T00:31:28;50.60;;;21.08;;
23608;SDS011;11982;50.810;4.442;2024-03-08T00:33:56;58.22;;;22.08;;
23608;SDS011;11982;50.810;4.442;2024-03-08T00:36:22;48.22;;;21.77;;
23608;SDS011;11982;50.810;4.442;2024-03-08T00:38:48;52.33;;;21.23;;
23608;SDS011;11982;50.810;4.442;2024-03-08T00:41:13;51.38;;;21.45;;
23608;SDS011;11982;50.810;4.442;2024-03-08T00:43:39;48.28;;;20.90;;
23608;SDS011;11982;50.810;4.442;2024-03-08T00:46:05;49.63;;;21.60;;
23608;SDS011;11982;50.810;4.442;2024-03-08T00:48:30;54.03;;;22.35;;
23608;SDS011;11982;50.810;4.442;2024-03-08T00:50:56;49.35;;;20.42;;
23608;SDS011;11982;50.810;4.442;2024-03-08T00:53:22;49.42;;;21.63;;
23608;SDS011;11982;50.810;4.442;2024-03-08T00:55:48;51.92;;;21.50;;
23608;SDS011;11982;50.810;4.442;2024-03-08T00:58:14;54.45;;;22.58;;
23608;SDS011;11982;50.810;4.442;2024-03-08T01:00:40;48.55;;;22.33;;
23608;SDS011;11982;50.810;4.442;2024-03-08T01:03:06;46.25;;;21.85;;
23608;SDS011;11982;50.810;4.442;2024-03-08T01:05:32;56.05;;;21.30;;
23608;SDS011;11982;50.810;4.442;2024-03-08T01:07:58;52.70;;;23.05;;
23608;SDS011;11982;50.810;4.442;2024-03-08T01:10:24;51.53;;;21.30;;
23608;SDS011;11982;50.810;4.442;2024-03-08T01:12:49;51.65;;;22.58;;
23608;SDS011;11982;50.810;4.442;2024-03-08T01:15:15;47.20;;;21.85;;
23608;SDS011;11982;50.810;4.442;2024-03-08T01:17:41;55.53;;;22.48;;
23608;SDS011;11982;50.810;4.442;2024-03-08T01:20:08;49.92;;;21.77;;
23608;SDS011;11982;50.810;4.442;2024-03-08T01:22:37;49.30;;;22.08;;
23608;SDS011;11982;50.810;4.442;2024-03-08T01:25:03;51.42;;;22.75;;
23608;SDS011;11982;50.810;4.442;2024-03-08T01:27:30;55.00;;;22.88;;
23608;SDS011;11982;50.810;4.442;2024-03-08T01:29:56;45.40;;;22.30;;
23608;SDS011;11982;50.810;4.442;2024-03-08T01:32:21;47.45;;;22.50;;
23608;SDS011;11982;50.810;4.442;2024-03-08T01:34:48;54.40;;;23.90;;
23608;SDS011;11982;50.810;4.442;2024-03-08T01:37:14;52.17;;;23.25;;
23608;SDS011;11982;50.810;4.442;2024-03-08T01:39:40;49.50;;;23.90;;
23608;SDS011;11982;50.810;4.442;2024-03-08T01:42:06;55.65;;;23.90;;
23608;SDS011;11982;50.810;4.442;2024-03-08T01:44:32;50.25;;;23.15;;
23608;SDS011;11982;50.810;4.442;2024-03-08T01:46:57;53.95;;;23.77;;
23608;SDS011;11982;50.810;4.442;2024-03-08T01:49:24;56.78;;;24.02;;
23608;SDS011;11982;50.810;4.442;2024-03-08T01:51:51;52.40;;;23.05;;
23608;SDS011;11982;50.810;4.442;2024-03-08T01:54:18;55.97;;;24.30;;
23608;SDS011;11982;50.810;4.442;2024-03-08T01:56:45;51.45;;;23.65;;
23608;SDS011;11982;50.810;4.442;2024-03-08T01:59:11;53.13;;;23.90;;
23608;SDS011;11982;50.810;4.442;2024-03-08T02:01:37;55.40;;;25.33;;
23608;SDS011;11982;50.810;4.442;2024-03-08T02:04:03;53.22;;;25.33;;
23608;SDS011;11982;50.810;4.442;2024-03-08T02:06:31;47.78;;;21.73;;
23608;SDS011;11982;50.810;4.442;2024-03-08T02:08:57;53.15;;;25.15;;
23608;SDS011;11982;50.810;4.442;2024-03-08T02:11:23;59.47;;;26.17;;
23608;SDS011;11982;50.810;4.442;2024-03-08T02:13:49;51.15;;;24.25;;
23608;SDS011;11982;50.810;4.442;2024-03-08T02:16:20;56.28;;;25.17;;
23608;SDS011;11982;50.810;4.442;2024-03-08T02:18:47;56.83;;;26.27;;
23608;SDS011;11982;50.810;4.442;2024-03-08T02:21:13;55.60;;;25.30;;
23608;SDS011;11982;50.810;4.442;2024-03-08T02:23:43;53.83;;;25.05;;
23608;SDS011;11982;50.810;4.442;2024-03-08T02:26:08;58.70;;;26.95;;
23608;SDS011;11982;50.810;4.442;2024-03-08T02:28:34;56.90;;;26.08;;
23608;SDS011;11982;50.810;4.442;2024-03-08T02:31:00;51.30;;;25.75;;
23608;SDS011;11982;50.810;4.442;2024-03-08T02:33:27;55.55;;;25.45;;
23608;SDS011;11982;50.810;4.442;2024-03-08T02:35:53;55.55;;;26.25;;
23608;SDS011;11982;50.810;4.442;2024-03-08T02:38:20;54.85;;;25.80;;
23608;SDS011;11982;50.810;4.442;2024-03-08T02:40:48;56.28;;;26.55;;
23608;SDS011;11982;50.810;4.442;2024-03-08T02:43:15;57.67;;;26.80;;
23608;SDS011;11982;50.810;4.442;2024-03-08T02:45:45;57.40;;;26.30;;
23608;SDS011;11982;50.810;4.442;2024-03-08T02:48:11;60.75;;;27.08;;
23608;SDS011;11982;50.810;4.442;2024-03-08T02:50:38;61.05;;;26.45;;
23608;SDS011;11982;50.810;4.442;2024-03-08T02:53:10;55.33;;;28.00;;
23608;SDS011;11982;50.810;4.442;2024-03-08T02:55:37;55.95;;;27.85;;
23608;SDS011;11982;50.810;4.442;2024-03-08T02:58:04;53.95;;;26.75;;
23608;SDS011;11982;50.810;4.442;2024-03-08T03:00:30;60.33;;;28.92;;
23608;SDS011;11982;50.810;4.442;2024-03-08T03:02:56;62.85;;;29.10;;
23608;SDS011;11982;50.810;4.442;2024-03-08T03:05:22;51.65;;;27.15;;
23608;SDS011;11982;50.810;4.442;2024-03-08T03:07:49;60.03;;;28.67;;
23608;SDS011;11982;50.810;4.442;2024-03-08T03:10:18;63.42;;;28.10;;
23608;SDS011;11982;50.810;4.442;2024-03-08T03:12:45;57.40;;;28.35;;
23608;SDS011;11982;50.810;4.442;2024-03-08T03:15:11;67.97;;;29.55;;
23608;SDS011;11982;50.810;4.442;2024-03-08T03:17:37;57.95;;;28.20;;
23608;SDS011;11982;50.810;4.442;2024-03-08T03:20:07;59.80;;;28.98;;
23608;SDS011;11982;50.810;4.442;2024-03-08T03:22:38;57.38;;;27.58;;
23608;SDS011;11982;50.810;4.442;2024-03-08T03:25:06;56.22;;;28.42;;
23608;SDS011;11982;50.810;4.442;2024-03-08T03:27:32;64.93;;;30.63;;
23608;SDS011;11982;50.810;4.442;2024-03-08T03:29:58;62.33;;;29.35;;
23608;SDS011;11982;50.810;4.442;2024-03-08T03:32:44;65.93;;;28.70;;
23608;SDS011;11982;50.810;4.442;2024-03-08T03:35:12;65.68;;;30.08;;
23608;SDS011;11982;50.810;4.442;2024-03-08T03:37:39;66.45;;;31.35;;
23608;SDS011;11982;50.810;4.442;2024-03-08T03:40:07;60.10;;;29.90;;
23608;SDS011;11982;50.810;4.442;2024-03-08T03:42:34;61.95;;;30.30;;
23608;SDS011;11982;50.810;4.442;2024-03-08T03:44:59;60.97;;;29.38;;
23608;SDS011;11982;50.810;4.442;2024-03-08T03:47:25;63.72;;;31.20;;
23608;SDS011;11982;50.810;4.442;2024-03-08T03:49:52;64.22;;;29.83;;
23608;SDS011;11982;50.810;4.442;2024-03-08T03:52:19;68.43;;;30.52;;
23608;SDS011;11982;50.810;4.442;2024-03-08T03:54:44;62.38;;;31.67;;
23608;SDS011;11982;50.810;4.442;2024-03-08T03:57:10;58.35;;;29.65;;
23608;SDS011;11982;50.810;4.442;2024-03-08T03:59:37;62.63;;;30.52;;
23608;SDS011;11982;50.810;4.442;2024-03-08T04:02:04;64.07;;;30.45;;
23608;SDS011;11982;50.810;4.442;2024-03-08T04:04:30;65.57;;;31.08;;
23608;SDS011;11982;50.810;4.442;2024-03-08T04:06:56;62.92;;;31.40;;
23608;SDS011;11982;50.810;4.442;2024-03-08T04:09:21;60.83;;;30.90;;
23608;SDS011;11982;50.810;4.442;2024-03-08T04:11:47;64.25;;;31.05;;
23608;SDS011;11982;50.810;4.442;2024-03-08T04:14:14;64.13;;;31.25;;
23608;SDS011;11982;50.810;4.442;2024-03-08T04:16:39;65.78;;;32.03;;
23608;SDS011;11982;50.810;4.442;2024-03-08T04:19:05;63.45;;;32.33;;
23608;SDS011;11982;50.810;4.442;2024-03-08T04:21:32;63.65;;;30.55;;
23608;SDS011;11982;50.810;4.442;2024-03-08T04:23:57;63.13;;;30.52;;
23608;SDS011;11982;50.810;4.442;2024-03-08T04:26:23;65.82;;;30.67;;
23608;SDS011;11982;50.810;4.442;2024-03-08T04:28:49;62.10;;;29.48;;
23608;SDS011;11982;50.810;4.442;2024-03-08T04:31:14;65.30;;;31.38;;
23608;SDS011;11982;50.810;4.442;2024-03-08T04:33:40;61.22;;;31.35;;
23608;SDS011;11982;50.810;4.442;2024-03-08T04:36:06;62.78;;;30.30;;
23608;SDS011;11982;50.810;4.442;2024-03-08T04:38:32;65.07;;;31.08;;
23608;SDS011;11982;50.810;4.442;2024-03-08T04:40:58;66.63;;;32.05;;
23608;SDS011;11982;50.810;4.442;2024-03-08T04:43:27;62.72;;;30.73;;
23608;SDS011;11982;50.810;4.442;2024-03-08T04:45:55;61.40;;;30.60;;
23608;SDS011;11982;50.810;4.442;2024-03-08T04:48:21;66.70;;;32.10;;
23608;SDS011;11982;50.810;4.442;2024-03-08T04:50:46;63.75;;;30.67;;
23608;SDS011;11982;50.810;4.442;2024-03-08T04:53:12;64.57;;;31.17;;
23608;SDS011;11982;50.810;4.442;2024-03-08T04:55:38;65.80;;;31.15;;
23608;SDS011;11982;50.810;4.442;2024-03-08T04:58:04;66.78;;;32.83;;
23608;SDS011;11982;50.810;4.442;2024-03-08T05:00:33;70.50;;;33.90;;
23608;SDS011;11982;50.810;4.442;2024-03-08T05:02:59;63.38;;;32.20;;
23608;SDS011;11982;50.810;4.442;2024-03-08T05:05:24;68.28;;;31.90;;
23608;SDS011;11982;50.810;4.442;2024-03-08T05:07:53;60.50;;;29.83;;
23608;SDS011;11982;50.810;4.442;2024-03-08T05:10:19;68.97;;;32.15;;
23608;SDS011;11982;50.810;4.442;2024-03-08T05:12:44;61.20;;;30.25;;
23608;SDS011;11982;50.810;4.442;2024-03-08T05:15:10;64.28;;;31.27;;
23608;SDS011;11982;50.810;4.442;2024-03-08T05:17:36;67.53;;;31.02;;
23608;SDS011;11982;50.810;4.442;2024-03-08T05:20:02;63.58;;;30.52;;
23608;SDS011;11982;50.810;4.442;2024-03-08T05:22:29;64.68;;;31.33;;
23608;SDS011;11982;50.810;4.442;2024-03-08T05:24:54;69.00;;;30.33;;
23608;SDS011;11982;50.810;4.442;2024-03-08T05:27:20;66.22;;;30.63;;
23608;SDS011;11982;50.810;4.442;2024-03-08T05:29:46;73.07;;;31.15;;
23608;SDS011;11982;50.810;4.442;2024-03-08T05:32:12;64.65;;;31.13;;
23608;SDS011;11982;50.810;4.442;2024-03-08T05:34:37;61.50;;;30.77;;
23608;SDS011;11982;50.810;4.442;2024-03-08T05:37:03;66.78;;;31.48;;
23608;SDS011;11982;50.810;4.442;2024-03-08T05:39:29;69.47;;;31.35;;
23608;SDS011;11982;50.810;4.442;2024-03-08T05:41:55;66.97;;;30.73;;
23608;SDS011;11982;50.810;4.442;2024-03-08T05:44:21;62.88;;;29.92;;
23608;SDS011;11982;50.810;4.442;2024-03-08T05:46:47;65.45;;;30.00;;
23608;SDS011;11982;50.810;4.442;2024-03-08T05:49:13;68.10;;;31.85;;
23608;SDS011;11982;50.810;4.442;2024-03-08T05:51:39;66.45;;;31.30;;
23608;SDS011;11982;50.810;4.442;2024-03-08T05:54:12;70.38;;;31.63;;
23608;SDS011;11982;50.810;4.442;2024-03-08T05:56:38;65.13;;;29.13;;
23608;SDS011;11982;50.810;4.442;2024-03-08T05:59:08;66.90;;;30.58;;
23608;SDS011;11982;50.810;4.442;2024-03-08T06:01:34;65.95;;;31.50;;
23608;SDS011;11982;50.810;4.442;2024-03-08T06:04:02;70.20;;;31.88;;
23608;SDS011;11982;50.810;4.442;2024-03-08T06:06:28;72.75;;;32.13;;
23608;SDS011;11982;50.810;4.442;2024-03-08T06:08:54;67.70;;;31.80;;
23608;SDS011;11982;50.810;4.442;2024-03-08T06:11:23;62.78;;;29.77;;
23608;SDS011;11982;50.810;4.442;2024-03-08T06:13:51;64.00;;;30.70;;
23608;SDS011;11982;50.810;4.442;2024-03-08T06:16:20;69.28;;;31.77;;
23608;SDS011;11982;50.810;4.442;2024-03-08T06:18:46;68.30;;;30.75;;
23608;SDS011;11982;50.810;4.442;2024-03-08T06:21:11;65.28;;;30.35;;
23608;SDS011;11982;50.810;4.442;2024-03-08T06:23:37;67.15;;;31.65;;
23608;SDS011;11982;50.810;4.442;2024-03-08T06:26:04;71.07;;;31.20;;
23608;SDS011;11982;50.810;4.442;2024-03-08T06:28:30;74.68;;;31.48;;
23608;SDS011;11982;50.810;4.442;2024-03-08T06:30:57;77.72;;;32.40;;
23608;SDS011;11982;50.810;4.442;2024-03-08T06:33:23;65.53;;;29.98;;
23608;SDS011;11982;50.810;4.442;2024-03-08T06:35:51;71.85;;;31.70;;
23608;SDS011;11982;50.810;4.442;2024-03-08T06:38:17;64.82;;;29.35;;
23608;SDS011;11982;50.810;4.442;2024-03-08T06:40:44;70.68;;;31.50;;
23608;SDS011;11982;50.810;4.442;2024-03-08T06:43:12;68.57;;;31.70;;
23608;SDS011;11982;50.810;4.442;2024-03-08T06:45:41;63.40;;;28.88;;
23608;SDS011;11982;50.810;4.442;2024-03-08T06:48:17;65.93;;;29.67;;
23608;SDS011;11982;50.810;4.442;2024-03-08T06:50:43;66.82;;;30.13;;
23608;SDS011;11982;50.810;4.442;2024-03-08T06:53:10;66.28;;;30.92;;
23608;SDS011;11982;50.810;4.442;2024-03-08T06:55:36;63.55;;;29.35;;
23608;SDS011;11982;50.810;4.442;2024-03-08T06:58:02;66.05;;;30.55;;
23608;SDS011;11982;50.810;4.442;2024-03-08T07:00:28;65.22;;;29.23;;
23608;SDS011;11982;50.810;4.442;2024-03-08T07:02:55;64.97;;;30.25;;
23608;SDS011;11982;50.810;4.442;2024-03-08T07:05:25;65.18;;;29.48;;
23608;SDS011;11982;50.810;4.442;2024-03-08T07:07:54;63.55;;;30.40;;
23608;SDS011;11982;50.810;4.442;2024-03-08T07:10:23;65.65;;;30.45;;
23608;SDS011;11982;50.810;4.442;2024-03-08T07:12:52;63.08;;;29.77;;
23608;SDS011;11982;50.810;4.442;2024-03-08T07:15:18;64.80;;;29.63;;
23608;SDS011;11982;50.810;4.442;2024-03-08T07:17:48;69.00;;;29.80;;
23608;SDS011;11982;50.810;4.442;2024-03-08T07:20:14;63.88;;;29.70;;
23608;SDS011;11982;50.810;4.442;2024-03-08T07:22:44;63.72;;;28.88;;
23608;SDS011;11982;50.810;4.442;2024-03-08T07:25:12;62.65;;;27.50;;
23608;SDS011;11982;50.810;4.442;2024-03-08T07:27:41;63.38;;;28.27;;
23608;SDS011;11982;50.810;4.442;2024-03-08T07:30:07;63.42;;;30.02;;
23608;SDS011;11982;50.810;4.442;2024-03-08T07:32:35;68.53;;;29.05;;
23608;SDS011;11982;50.810;4.442;2024-03-08T07:35:01;68.20;;;29.50;;
23608;SDS011;11982;50.810;4.442;2024-03-08T07:37:27;64.28;;;28.92;;
23608;SDS011;11982;50.810;4.442;2024-03-08T07:39:53;65.28;;;27.67;;
23608;SDS011;11982;50.810;4.442;2024-03-08T07:42:18;62.15;;;28.40;;
23608;SDS011;11982;50.810;4.442;2024-03-08T07:44:44;52.85;;;26.75;;
23608;SDS011;11982;50.810;4.442;2024-03-08T07:47:13;60.42;;;28.45;;
23608;SDS011;11982;50.810;4.442;2024-03-08T07:49:39;56.20;;;27.05;;
23608;SDS011;11982;50.810;4.442;2024-03-08T07:52:04;62.60;;;27.17;;
23608;SDS011;11982;50.810;4.442;2024-03-08T07:54:32;62.60;;;27.42;;
23608;SDS011;11982;50.810;4.442;2024-03-08T07:56:59;61.63;;;27.75;;
23608;SDS011;11982;50.810;4.442;2024-03-08T07:59:24;59.20;;;27.77;;
23608;SDS011;11982;50.810;4.442;2024-03-08T08:01:50;57.28;;;27.17;;
23608;SDS011;11982;50.810;4.442;2024-03-08T08:04:16;57.30;;;25.85;;
23608;SDS011;11982;50.810;4.442;2024-03-08T08:06:43;59.35;;;26.98;;
23608;SDS011;11982;50.810;4.442;2024-03-08T08:09:09;51.42;;;25.65;;
23608;SDS011;11982;50.810;4.442;2024-03-08T08:11:40;59.50;;;26.73;;
23608;SDS011;11982;50.810;4.442;2024-03-08T08:14:08;59.63;;;26.92;;
23608;SDS011;11982;50.810;4.442;2024-03-08T08:16:35;57.50;;;26.23;;
23608;SDS011;11982;50.810;4.442;2024-03-08T08:19:02;58.10;;;26.90;;
23608;SDS011;11982;50.810;4.442;2024-03-08T08:21:35;56.25;;;25.73;;
23608;SDS011;11982;50.810;4.442;2024-03-08T08:24:02;55.05;;;25.63;;
23608;SDS011;11982;50.810;4.442;2024-03-08T08:26:28;53.13;;;25.35;;
23608;SDS011;11982;50.810;4.442;2024-03-08T08:28:54;57.17;;;26.33;;
23608;SDS011;11982;50.810;4.442;2024-03-08T08:31:19;58.42;;;27.55;;
23608;SDS011;11982;50.810;4.442;2024-03-08T08:33:45;55.08;;;25.45;;
23608;SDS011;11982;50.810;4.442;2024-03-08T08:36:13;51.80;;;26.70;;
23608;SDS011;11982;50.810;4.442;2024-03-08T08:38:39;54.83;;;26.10;;
23608;SDS011;11982;50.810;4.442;2024-03-08T08:41:04;51.45;;;24.90;;
23608;SDS011;11982;50.810;4.442;2024-03-08T08:43:31;55.47;;;27.10;;
23608;SDS011;11982;50.810;4.442;2024-03-08T08:45:58;58.92;;;25.20;;
23608;SDS011;11982;50.810;4.442;2024-03-08T08:48:24;53.97;;;24.60;;
23608;SDS011;11982;50.810;4.442;2024-03-08T08:50:50;51.03;;;25.77;;
23608;SDS011;11982;50.810;4.442;2024-03-08T08:53:17;49.50;;;25.08;;
23608;SDS011;11982;50.810;4.442;2024-03-08T08:55:43;54.53;;;24.67;;
23608;SDS011;11982;50.810;4.442;2024-03-08T08:58:11;52.85;;;23.60;;
23608;SDS011;11982;50.810;4.442;2024-03-08T09:00:36;48.45;;;23.20;;
23608;SDS011;11982;50.810;4.442;2024-03-08T09:03:02;49.88;;;23.52;;
23608;SDS011;11982;50.810;4.442;2024-03-08T09:05:28;45.05;;;21.88;;
23608;SDS011;11982;50.810;4.442;2024-03-08T09:07:54;49.03;;;23.77;;
23608;SDS011;11982;50.810;4.442;2024-03-08T09:10:20;46.03;;;23.15;;
23608;SDS011;11982;50.810;4.442;2024-03-08T09:12:46;47.60;;;23.17;;
23608;SDS011;11982;50.810;4.442;2024-03-08T09:15:12;45.40;;;23.00;;
23608;SDS011;11982;50.810;4.442;2024-03-08T09:17:38;49.40;;;22.73;;
23608;SDS011;11982;50.810;4.442;2024-03-08T09:20:08;47.05;;;22.20;;
23608;SDS011;11982;50.810;4.442;2024-03-08T09:22:35;52.13;;;23.75;;
23608;SDS011;11982;50.810;4.442;2024-03-08T09:25:01;51.53;;;23.73;;
23608;SDS011;11982;50.810;4.442;2024-03-08T09:27:30;49.05;;;22.85;;
23608;SDS011;11982;50.810;4.442;2024-03-08T09:29:56;46.17;;;21.92;;
23608;SDS011;11982;50.810;4.442;2024-03-08T09:32:21;46.35;;;23.02;;
23608;SDS011;11982;50.810;4.442;2024-03-08T09:34:47;56.08;;;24.45;;
23608;SDS011;11982;50.810;4.442;2024-03-08T09:37:13;39.42;;;22.73;;
23608;SDS011;11982;50.810;4.442;2024-03-08T09:39:39;53.95;;;23.52;;
23608;SDS011;11982;50.810;4.442;2024-03-08T09:42:05;44.20;;;22.27;;
23608;SDS011;11982;50.810;4.442;2024-03-08T09:44:31;45.08;;;22.45;;
23608;SDS011;11982;50.810;4.442;2024-03-08T09:46:57;41.35;;;22.20;;
23608;SDS011;11982;50.810;4.442;2024-03-08T09:49:24;42.95;;;21.70;;
23608;SDS011;11982;50.810;4.442;2024-03-08T09:51:50;51.72;;;22.98;;
23608;SDS011;11982;50.810;4.442;2024-03-08T09:54:16;39.42;;;20.98;;
23608;SDS011;11982;50.810;4.442;2024-03-08T09:56:42;43.58;;;21.50;;
23608;SDS011;11982;50.810;4.442;2024-03-08T09:59:09;43.00;;;21.48;;
23608;SDS011;11982;50.810;4.442;2024-03-08T10:01:47;43.08;;;21.13;;
23608;SDS011;11982;50.810;4.442;2024-03-08T10:04:12;40.75;;;21.70;;
23608;SDS011;11982;50.810;4.442;2024-03-08T10:06:39;44.85;;;22.17;;
23608;SDS011;11982;50.810;4.442;2024-03-08T10:09:05;47.10;;;22.50;;
23608;SDS011;11982;50.810;4.442;2024-03-08T10:11:33;41.20;;;20.92;;
23608;SDS011;11982;50.810;4.442;2024-03-08T10:13:59;42.65;;;22.58;;
23608;SDS011;11982;50.810;4.442;2024-03-08T10:16:29;35.47;;;17.98;;
23608;SDS011;11982;50.810;4.442;2024-03-08T10:18:58;44.10;;;21.33;;
23608;SDS011;11982;50.810;4.442;2024-03-08T10:21:25;44.30;;;20.65;;
23608;SDS011;11982;50.810;4.442;2024-03-08T10:23:52;41.15;;;21.30;;
23608;SDS011;11982;50.810;4.442;2024-03-08T10:26:18;43.67;;;22.63;;
23608;SDS011;11982;50.810;4.442;2024-03-08T10:28:47;39.47;;;21.58;;
23608;SDS011;11982;50.810;4.442;2024-03-08T10:31:13;43.80;;;21.95;;
23608;SDS011;11982;50.810;4.442;2024-03-08T10:33:40;45.88;;;21.65;;
23608;SDS011;11982;50.810;4.442;2024-03-08T10:36:09;38.95;;;20.30;;
23608;SDS011;11982;50.810;4.442;2024-03-08T10:38:37;45.53;;;21.88;;
23608;SDS011;11982;50.810;4.442;2024-03-08T10:41:10;45.85;;;21.95;;
23608;SDS011;11982;50.810;4.442;2024-03-08T10:46:45;41.55;;;20.38;;
23608;SDS011;11982;50.810;4.442;2024-03-08T10:49:20;40.35;;;21.92;;
23608;SDS011;11982;50.810;4.442;2024-03-08T10:52:04;40.70;;;21.95;;
23608;SDS011;11982;50.810;4.442;2024-03-08T10:54:37;38.47;;;20.13;;
23608;SDS011;11982;50.810;4.442;2024-03-08T10:57:04;38.10;;;19.15;;
23608;SDS011;11982;50.810;4.442;2024-03-08T10:59:31;41.63;;;21.05;;
23608;SDS011;11982;50.810;4.442;2024-03-08T11:01:58;39.67;;;20.63;;
23608;SDS011;11982;50.810;4.442;2024-03-08T11:04:25;41.33;;;21.27;;
23608;SDS011;11982;50.810;4.442;2024-03-08T11:06:51;43.60;;;21.95;;
23608;SDS011;11982;50.810;4.442;2024-03-08T11:15:01;38.80;;;20.27;;
23608;SDS011;11982;50.810;4.442;2024-03-08T11:28:14;37.78;;;19.38;;
23608;SDS011;11982;50.810;4.442;2024-03-08T11:33:24;37.20;;;19.98;;
23608;SDS011;11982;50.810;4.442;2024-03-08T11:35:52;34.40;;;19.10;;
23608;SDS011;11982;50.810;4.442;2024-03-08T11:38:28;38.30;;;21.38;;
23608;SDS011;11982;50.810;4.442;2024-03-08T11:40:56;37.47;;;19.23;;
23608;SDS011;11982;50.810;4.442;2024-03-08T11:43:22;34.97;;;20.42;;
23608;SDS011;11982;50.810;4.442;2024-03-08T11:45:48;49.42;;;24.70;;
23608;SDS011;11982;50.810;4.442;2024-03-08T11:48:13;41.10;;;19.85;;
23608;SDS011;11982;50.810;4.442;2024-03-08T11:50:39;37.58;;;20.27;;
23608;SDS011;11982;50.810;4.442;2024-03-08T11:53:05;36.83;;;20.60;;
23608;SDS011;11982;50.810;4.442;2024-03-08T11:55:31;34.15;;;19.55;;
23608;SDS011;11982;50.810;4.442;2024-03-08T11:58:04;37.47;;;19.88;;
23608;SDS011;11982;50.810;4.442;2024-03-08T12:00:30;31.80;;;19.02;;
23608;SDS011;11982;50.810;4.442;2024-03-08T12:03:05;36.45;;;20.13;;
23608;SDS011;11982;50.810;4.442;2024-03-08T12:05:32;36.97;;;20.88;;
23608;SDS011;11982;50.810;4.442;2024-03-08T12:07:58;36.10;;;19.60;;
23608;SDS011;11982;50.810;4.442;2024-03-08T12:10:25;36.95;;;19.02;;
23608;SDS011;11982;50.810;4.442;2024-03-08T12:12:52;36.33;;;19.40;;
23608;SDS011;11982;50.810;4.442;2024-03-08T12:15:19;33.03;;;19.27;;
23608;SDS011;11982;50.810;4.442;2024-03-08T12:17:48;33.90;;;18.40;;
23608;SDS011;11982;50.810;4.442;2024-03-08T12:20:22;38.10;;;20.75;;
23608;SDS011;11982;50.810;4.442;2024-03-08T12:22:59;33.42;;;19.13;;
23608;SDS011;11982;50.810;4.442;2024-03-08T12:25:31;37.00;;;19.23;;
23608;SDS011;11982;50.810;4.442;2024-03-08T12:30:36;35.42;;;18.90;;
23608;SDS011;11982;50.810;4.442;2024-03-08T12:33:13;34.25;;;18.25;;
23608;SDS011;11982;50.810;4.442;2024-03-08T12:35:39;36.08;;;18.92;;
23608;SDS011;11982;50.810;4.442;2024-03-08T12:38:05;34.08;;;18.20;;
23608;SDS011;11982;50.810;4.442;2024-03-08T12:40:33;33.88;;;17.95;;
23608;SDS011;11982;50.810;4.442;2024-03-08T12:43:05;35.83;;;18.58;;
23608;SDS011;11982;50.810;4.442;2024-03-08T12:45:31;32.90;;;18.58;;
23608;SDS011;11982;50.810;4.442;2024-03-08T12:47:57;31.67;;;18.30;;
23608;SDS011;11982;50.810;4.442;2024-03-08T12:50:24;30.85;;;18.13;;
23608;SDS011;11982;50.810;4.442;2024-03-08T12:52:50;38.00;;;21.08;;
23608;SDS011;11982;50.810;4.442;2024-03-08T12:55:17;37.95;;;19.85;;
23608;SDS011;11982;50.810;4.442;2024-03-08T12:57:44;33.00;;;17.95;;
23608;SDS011;11982;50.810;4.442;2024-03-08T13:00:12;31.48;;;17.52;;
23608;SDS011;11982;50.810;4.442;2024-03-08T13:02:48;29.65;;;18.13;;
23608;SDS011;11982;50.810;4.442;2024-03-08T13:05:16;31.17;;;16.83;;
23608;SDS011;11982;50.810;4.442;2024-03-08T13:07:42;32.05;;;18.23;;
23608;SDS011;11982;50.810;4.442;2024-03-08T13:10:14;34.65;;;18.67;;
23608;SDS011;11982;50.810;4.442;2024-03-08T13:12:41;31.88;;;17.35;;
23608;SDS011;11982;50.810;4.442;2024-03-08T13:15:08;33.45;;;17.75;;
23608;SDS011;11982;50.810;4.442;2024-03-08T13:17:40;31.33;;;17.45;;
23608;SDS011;11982;50.810;4.442;2024-03-08T13:20:07;30.33;;;16.95;;
23608;SDS011;11982;50.810;4.442;2024-03-08T13:22:34;33.22;;;18.63;;
23608;SDS011;11982;50.810;4.442;2024-03-08T13:25:01;33.70;;;18.48;;
23608;SDS011;11982;50.810;4.442;2024-03-08T13:27:27;30.58;;;18.27;;
23608;SDS011;11982;50.810;4.442;2024-03-08T13:29:53;33.25;;;18.08;;
23608;SDS011;11982;50.810;4.442;2024-03-08T13:32:19;34.45;;;18.35;;
23608;SDS011;11982;50.810;4.442;2024-03-08T13:34:49;31.02;;;16.58;;
23608;SDS011;11982;50.810;4.442;2024-03-08T13:37:16;25.65;;;15.50;;
23608;SDS011;11982;50.810;4.442;2024-03-08T13:39:42;28.55;;;16.52;;
23608;SDS011;11982;50.810;4.442;2024-03-08T13:42:11;29.48;;;15.82;;
23608;SDS011;11982;50.810;4.442;2024-03-08T13:44:46;30.98;;;17.35;;
23608;SDS011;11982;50.810;4.442;2024-03-08T13:47:16;33.03;;;17.80;;
23608;SDS011;11982;50.810;4.442;2024-03-08T13:49:42;30.48;;;16.48;;
23608;SDS011;11982;50.810;4.442;2024-03-08T13:52:09;31.85;;;16.45;;
23608;SDS011;11982;50.810;4.442;2024-03-08T13:54:35;29.50;;;17.23;;
23608;SDS011;11982;50.810;4.442;2024-03-08T13:57:02;29.95;;;16.58;;
23608;SDS011;11982;50.810;4.442;2024-03-08T13:59:32;29.35;;;15.80;;
23608;SDS011;11982;50.810;4.442;2024-03-08T14:02:00;28.45;;;16.48;;
23608;SDS011;11982;50.810;4.442;2024-03-08T14:04:29;27.83;;;15.40;;
23608;SDS011;11982;50.810;4.442;2024-03-08T14:06:55;29.33;;;16.25;;
23608;SDS011;11982;50.810;4.442;2024-03-08T14:09:33;29.67;;;16.20;;
23608;SDS011;11982;50.810;4.442;2024-03-08T14:12:02;31.27;;;16.60;;
23608;SDS011;11982;50.810;4.442;2024-03-08T14:14:32;31.40;;;16.67;;
23608;SDS011;11982;50.810;4.442;2024-03-08T14:17:00;29.95;;;16.35;;
23608;SDS011;11982;50.810;4.442;2024-03-08T14:19:27;32.92;;;15.93;;
23608;SDS011;11982;50.810;4.442;2024-03-08T14:21:53;35.80;;;16.60;;
23608;SDS011;11982;50.810;4.442;2024-03-08T14:24:19;29.83;;;16.90;;
23608;SDS011;11982;50.810;4.442;2024-03-08T14:26:45;26.67;;;16.20;;
23608;SDS011;11982;50.810;4.442;2024-03-08T14:29:14;26.65;;;14.52;;
23608;SDS011;11982;50.810;4.442;2024-03-08T14:31:40;27.05;;;14.50;;
23608;SDS011;11982;50.810;4.442;2024-03-08T14:34:06;25.23;;;13.90;;
23608;SDS011;11982;50.810;4.442;2024-03-08T14:36:32;24.85;;;13.50;;
23608;SDS011;11982;50.810;4.442;2024-03-08T14:38:58;29.00;;;13.10;;
23608;SDS011;11982;50.810;4.442;2024-03-08T14:41:23;21.33;;;11.70;;
23608;SDS011;11982;50.810;4.442;2024-03-08T14:43:49;27.35;;;12.73;;
23608;SDS011;11982;50.810;4.442;2024-03-08T14:46:17;22.05;;;12.13;;